createdAt,value
2023-04-18T04:38:18.607Z,3.80
2023-04-18T04:53:33.325Z,3.90
2023-04-18T05:08:37.104Z,5.30
2023-04-18T05:23:42.070Z,4.43
2023-04-18T05:38:43.985Z,4.05
2023-04-18T05:53:46.001Z,6.05
2023-04-18T06:08:52.816Z,5.30
2023-04-18T06:23:55.058Z,5.05
2023-04-18T06:39:00.958Z,5.03
2023-04-18T06:54:02.950Z,5.50
2023-04-18T07:09:04.944Z,5.75
2023-04-18T07:24:08.686Z,6.00
2023-04-18T07:39:13.069Z,6.45
2023-04-18T07:54:15.134Z,5.93
2023-04-18T08:09:21.517Z,6.75
2023-04-18T08:24:23.636Z,8.98
2023-04-18T08:39:25.794Z,9.38
2023-04-18T08:54:30.994Z,10.02
2023-04-18T09:09:50.498Z,9.63
2023-04-18T09:24:57.875Z,8.95
2023-04-18T09:40:05.836Z,8.30
2023-04-18T09:55:12.385Z,7.65
2023-04-18T10:10:14.563Z,7.75
2023-04-18T10:25:35.303Z,8.05
2023-04-18T10:40:38.628Z,7.22
2023-04-18T10:55:40.898Z,7.63
2023-04-18T11:10:42.896Z,7.95
2023-04-18T11:25:45.374Z,7.47
2023-04-18T11:40:52.873Z,7.43
2023-04-18T12:13:13.136Z,7.78
2023-04-18T12:28:15.855Z,7.85
2023-04-18T12:43:22.193Z,8.50
2023-04-18T13:32:26.134Z,9.80
2023-04-18T14:04:32.943Z,9.48
2023-04-18T14:20:44.365Z,9.20
2023-04-18T14:35:52.551Z,11.75
2023-04-18T15:07:04.933Z,9.35
2023-04-18T15:22:07.365Z,8.38
2023-04-18T15:37:09.560Z,9.27
2023-04-18T15:52:11.595Z,9.57
2023-04-18T16:07:13.517Z,8.63
2023-04-18T16:22:15.465Z,9.20
2023-04-18T16:37:17.528Z,9.15
2023-04-18T16:52:20.316Z,8.35
2023-04-18T17:07:22.259Z,8.52
2023-04-18T17:22:24.239Z,8.65
2023-04-18T17:37:26.673Z,8.30
2023-04-18T17:52:28.793Z,8.55
2023-04-18T18:07:34.706Z,7.35
2023-04-18T18:22:37.321Z,8.02
2023-04-18T18:37:41.131Z,7.53
2023-04-18T18:52:43.353Z,8.05
2023-04-18T19:07:45.295Z,8.15
2023-04-18T19:22:47.219Z,7.88
2023-04-18T19:37:49.123Z,7.60
2023-04-18T19:52:51.096Z,7.28
2023-04-18T20:07:53.119Z,7.13
2023-04-18T20:22:55.345Z,6.95
2023-04-18T20:37:57.853Z,7.55
2023-04-18T20:53:01.257Z,7.07
